Triumph IV — WBE7581 — position and weather

sailwx.info

Track history (hours):
 
Tides and Currents Weather Stations Pressure Air Temp Water Temp Dewpoint Dewpoint Depression Visibility Wind Speed Wind Dir Waves Ship Positions

Triumph IV

Last reported at 2017-Nov-20 00:29 UTC. Time now 2017-Nov-20 14:02 UTC.
Position N 45°38' W 122°45'.

Length 13 m.

MMSI: 367177660.

Date/timePositionNaut miles runAvg speedWind from/ knotsBaromVisibWave heightAir tempDewpointWater temp
2017-Nov-20 00:29N 45°38' W 122°45'0 0.0
2017-Nov-19 23:59N 45°38' W 122°45'0 0.3
2017-Nov-19 23:30N 45°39' W 122°45'2 5.1
2017-Nov-19 23:00N 45°41' W 122°46'2 4.6
2017-Nov-19 22:29N 45°39' W 122°45'3 5.4
2017-Nov-19 22:00N 45°37' W 122°42'1 2.3
2017-Nov-19 21:30N 45°36' W 122°41'0 0.2
2017-Nov-19 20:50N 45°36' W 122°41'0 0.0
2017-Nov-19 20:23N 45°36' W 122°41'0 0.0
2017-Nov-19 19:59N 45°36' W 122°41'0 0.0
2017-Nov-19 19:17N 45°36' W 122°41'0 0.0
2017-Nov-19 18:59N 45°36' W 122°41'0 0.0
2017-Nov-19 17:32N 45°36' W 122°41'0 0.0
2017-Nov-19 17:29N 45°36' W 122°41'0 0.0
2017-Nov-19 16:56N 45°36' W 122°41'0 0.0
2017-Nov-19 15:59N 45°36' W 122°41'0 0.6
2017-Nov-19 15:28N 45°37' W 122°41'3 6.0
2017-Nov-19 15:01N 45°39' W 122°44'0 0.8
2017-Nov-19 14:29N 45°39' W 122°45'3 5.1
2017-Nov-19 14:00N 45°37' W 122°42'1 1.8
2017-Nov-19 13:27N 45°36' W 122°41'0 0.0
2017-Nov-19 12:48N 45°36' W 122°41'0 0.0
2017-Nov-19 12:30N 45°36' W 122°41'0 0.0
2017-Nov-19 11:51N 45°36' W 122°41'0 0.0
2017-Nov-19 11:30N 45°36' W 122°41'0 0.0
2017-Nov-19 10:57N 45°36' W 122°41'0 0.0
2017-Nov-19 10:27N 45°36' W 122°41'0 0.0
2017-Nov-19 10:00N 45°36' W 122°41'0 0.0
2017-Nov-19 09:18N 45°36' W 122°41'0 0.0
2017-Nov-19 08:57N 45°36' W 122°41'0 0.0
2017-Nov-19 08:27N 45°36' W 122°41'0 0.0
2017-Nov-19 08:00N 45°36' W 122°41'0 0.0
2017-Nov-19 07:18N 45°36' W 122°41'0 0.0
2017-Nov-19 07:00N 45°36' W 122°41'0 0.0
2017-Nov-19 06:30N 45°36' W 122°41'0 0.0
2017-Nov-19 05:57N 45°36' W 122°41'0 0.0
2017-Nov-19 05:27N 45°36' W 122°41'0 0.0
2017-Nov-19 05:00N 45°36' W 122°41'0 0.0
2017-Nov-19 04:27N 45°36' W 122°41'0 0.0
2017-Nov-19 04:00N 45°36' W 122°41'0 0.0
2017-Nov-19 03:27N 45°36' W 122°41'0 0.0
2017-Nov-19 03:00N 45°36' W 122°41'0 0.0
2017-Nov-19 02:30N 45°36' W 122°41'0 0.0
2017-Nov-19 01:54N 45°36' W 122°41'1 1.2
2017-Nov-19 01:28N 45°37' W 122°42'2 4.5
2017-Nov-19 00:58N 45°38' W 122°44'2 3.3
2017-Nov-19 00:27N 45°37' W 122°42'1 2.4
2017-Nov-18 23:59N 45°36' W 122°41'0 0.0
2017-Nov-18 23:26N 45°36' W 122°41'0 0.0
2017-Nov-18 22:59N 45°36' W 122°41'0 0.0
2017-Nov-18 22:29N 45°36' W 122°41'0 0.0
2017-Nov-18 21:56N 45°36' W 122°41'0 0.0
2017-Nov-18 21:29N 45°36' W 122°41'0 0.0
2017-Nov-18 20:59N 45°36' W 122°41'0 0.0
2017-Nov-18 20:29N 45°36' W 122°41'0 0.0
2017-Nov-18 19:59N 45°36' W 122°41'0 0.0
2017-Nov-18 19:29N 45°36' W 122°41'0 0.0
2017-Nov-18 18:56N 45°36' W 122°41'0 0.0
2017-Nov-18 18:26N 45°36' W 122°41'0 0.0
2017-Nov-18 17:50N 45°36' W 122°41'0 0.0
2017-Nov-18 17:29N 45°36' W 122°41'0 0.0
2017-Nov-18 16:56N 45°36' W 122°41'3 5.5
2017-Nov-18 16:27N 45°38' W 122°44'1 2.1
2017-Nov-18 16:00N 45°39' W 122°45'2 4.1
2017-Nov-18 15:30N 45°37' W 122°43'1 2.7
2017-Nov-18 14:58N 45°36' W 122°41'0 0.0
2017-Nov-18 14:28N 45°36' W 122°41'0 0.0
2017-Nov-18 13:55N 45°36' W 122°41'0 0.0
2017-Nov-18 13:25N 45°36' W 122°41'0 0.0
2017-Nov-18 12:43N 45°36' W 122°41'0 0.0
2017-Nov-18 12:28N 45°36' W 122°41'0 0.0
2017-Nov-18 11:58N 45°36' W 122°41'0 0.0
2017-Nov-18 11:28N 45°36' W 122°41'0 0.0
2017-Nov-18 10:49N 45°36' W 122°41'0 0.0
2017-Nov-18 10:25N 45°36' W 122°41'0 0.0
2017-Nov-18 09:37N 45°36' W 122°41'0 0.0
2017-Nov-18 09:13N 45°36' W 122°41'0 0.0
2017-Nov-18 08:58N 45°36' W 122°41'0 0.0
2017-Nov-18 08:25N 45°36' W 122°41'0 0.0
2017-Nov-18 07:55N 45°36' W 122°41'0 0.0
2017-Nov-18 07:28N 45°36' W 122°41'0 0.0
2017-Nov-18 06:58N 45°36' W 122°41'0 0.0
2017-Nov-18 06:25N 45°36' W 122°41'0 0.0
2017-Nov-18 05:55N 45°36' W 122°41'0 0.0
2017-Nov-18 05:25N 45°36' W 122°41'0 0.0
2017-Nov-18 04:58N 45°36' W 122°41'0 0.0
2017-Nov-18 04:28N 45°36' W 122°41'0 0.0
2017-Nov-18 03:55N 45°36' W 122°41'0 0.0
2017-Nov-18 03:22N 45°36' W 122°41'0 0.0
2017-Nov-18 02:58N 45°36' W 122°41'0 0.0
2017-Nov-18 02:28N 45°36' W 122°41'0 0.0
2017-Nov-18 01:55N 45°36' W 122°41'2 2.5
2017-Nov-18 01:08N 45°38' W 122°43'0 0.6
2017-Nov-18 00:46N 45°38' W 122°44'3 5.0
2017-Nov-18 00:12N 45°40' W 122°46'0 0.0
2017-Nov-17 23:54N 45°40' W 122°46'0 0.0
2017-Nov-17 23:30N 45°40' W 122°46'1 1.1
2017-Nov-17 22:59N 45°40' W 122°46'3 6.8
2017-Nov-17 22:30N 45°37' W 122°42'1 2.2
2017-Nov-17 21:59N 45°36' W 122°41'0 0.0
2017-Nov-17 21:26N 45°36' W 122°41'0 0.0
2017-Nov-17 20:56N 45°36' W 122°41'0 0.0
2017-Nov-17 20:26N 45°36' W 122°41'0 0.0
2017-Nov-17 19:41N 45°36' W 122°41'0 0.0
2017-Nov-17 19:26N 45°36' W 122°41'0 0.0
2017-Nov-17 18:56N 45°36' W 122°41'0 0.0
2017-Nov-17 18:29N 45°36' W 122°41'0 0.0
2017-Nov-17 17:56N 45°36' W 122°41'0 0.0
2017-Nov-17 17:26N 45°36' W 122°41'1 1.9
2017-Nov-17 16:59N 45°37' W 122°42'510.4
2017-Nov-17 16:30N 45°41' W 122°46'3 5.1
2017-Nov-17 16:00N 45°39' W 122°45'3 5.0
2017-Nov-17 15:30N 45°37' W 122°42'1 1.3
2017-Nov-17 14:41N 45°36' W 122°41'0 0.0
2017-Nov-17 14:14N 45°36' W 122°41'0 0.0
2017-Nov-17 13:53N 45°36' W 122°41'0 0.0
2017-Nov-17 13:26N 45°36' W 122°41'0 0.0
2017-Nov-17 12:59N 45°36' W 122°41'0 0.0
2017-Nov-17 12:20N 45°36' W 122°41'0 0.0
2017-Nov-17 11:59N 45°36' W 122°41'0 0.0
2017-Nov-17 11:20N 45°36' W 122°41'0 0.0
2017-Nov-17 10:56N 45°36' W 122°41'0 0.0
2017-Nov-17 10:05N 45°36' W 122°41'0 0.0
2017-Nov-17 09:59N 45°36' W 122°41'0 0.0
2017-Nov-17 09:29N 45°36' W 122°41'0 0.0
2017-Nov-17 08:50N 45°36' W 122°41'0 0.0
2017-Nov-17 08:26N 45°36' W 122°41'0 0.0
2017-Nov-17 07:59N 45°36' W 122°41'0 0.0
2017-Nov-17 07:26N 45°36' W 122°41'0 0.0
2017-Nov-17 06:59N 45°36' W 122°41'0 0.0
2017-Nov-17 06:23N 45°36' W 122°41'0 0.0
2017-Nov-17 05:56N 45°36' W 122°41'0 0.0
2017-Nov-17 05:26N 45°36' W 122°41'0 0.0
2017-Nov-17 04:59N 45°36' W 122°41'0 0.0
2017-Nov-17 04:20N 45°36' W 122°41'0 0.0
2017-Nov-17 03:50N 45°36' W 122°41'0 0.0
2017-Nov-17 03:26N 45°36' W 122°41'1 1.3
2017-Nov-17 02:59N 45°37' W 122°42'2 3.8
2017-Nov-17 02:30N 45°38' W 122°43'4 6.9
2017-Nov-17 01:56N 45°42' W 122°46'3 7.1
2017-Nov-17 01:30N 45°39' W 122°45'3 6.1
2017-Nov-17 00:56N 45°36' W 122°41'0 0.0
2017-Nov-17 00:26N 45°36' W 122°41'0 0.0
2017-Nov-16 23:53N 45°36' W 122°41'0 0.0
2017-Nov-16 23:26N 45°36' W 122°41'0 0.0
2017-Nov-16 22:26N 45°36' W 122°41'0 0.0
2017-Nov-16 21:59N 45°36' W 122°41'0 0.0
2017-Nov-16 21:29N 45°36' W 122°41'0 0.0
2017-Nov-16 20:00N 45°36' W 122°41'0 0.0
2017-Nov-16 19:24N 45°36' W 122°41'0 0.0
2017-Nov-16 19:00N 45°36' W 122°41'0 0.0
2017-Nov-16 18:30N 45°36' W 122°41'0 0.0
2017-Nov-16 18:00N 45°36' W 122°41'0 0.0
2017-Nov-16 17:30N 45°36' W 122°41'0 0.0
2017-Nov-16 17:00N 45°36' W 122°41'0 0.0
2017-Nov-16 16:24N 45°36' W 122°41'0 0.0
2017-Nov-16 16:00N 45°36' W 122°41'0 0.0
2017-Nov-16 15:18N 45°36' W 122°41'0 0.0
2017-Nov-16 15:00N 45°36' W 122°41'0 0.0
2017-Nov-16 14:30N 45°36' W 122°41'0 0.0
2017-Nov-16 13:54N 45°36' W 122°41'0 0.0
2017-Nov-16 13:24N 45°36' W 122°41'0 0.0
2017-Nov-16 12:57N 45°36' W 122°41'0 0.0
2017-Nov-16 12:30N 45°36' W 122°41'0 0.0
2017-Nov-16 11:57N 45°36' W 122°41'0 0.0
2017-Nov-16 11:27N 45°36' W 122°41'0 0.0
2017-Nov-16 10:51N 45°36' W 122°41'0 0.0
2017-Nov-16 10:24N 45°36' W 122°41'0 0.0
2017-Nov-16 10:00N 45°36' W 122°41'0 0.0
2017-Nov-16 08:54N 45°36' W 122°41'0 0.0
2017-Nov-16 08:30N 45°36' W 122°41'0 0.0
2017-Nov-16 07:57N 45°36' W 122°41'0 0.0
2017-Nov-16 07:30N 45°36' W 122°41'0 0.0
2017-Nov-16 06:54N 45°36' W 122°41'0 0.0
2017-Nov-16 06:27N 45°36' W 122°41'0 0.0
2017-Nov-16 06:00N 45°36' W 122°41'0 0.0
2017-Nov-16 05:27N 45°36' W 122°41'0 0.0
2017-Nov-16 04:54N 45°36' W 122°41'0 0.0
2017-Nov-16 04:30N 45°36' W 122°41'0 0.0
2017-Nov-16 04:00N 45°36' W 122°41'0 0.0
2017-Nov-16 03:30N 45°36' W 122°41'0 0.0
2017-Nov-16 03:00N 45°36' W 122°41'0 0.0
2017-Nov-16 02:30N 45°36' W 122°41'0 0.0
2017-Nov-16 02:00N 45°36' W 122°41'0 0.0
2017-Nov-16 01:21N 45°36' W 122°41'0 0.0
2017-Nov-16 00:45N 45°36' W 122°41'0 0.0
2017-Nov-16 00:24N 45°36' W 122°41'0 0.0
2017-Nov-16 00:00N 45°36' W 122°41'0 0.0
2017-Nov-15 23:27N 45°36' W 122°41'0 0.0
2017-Nov-15 22:57N 45°36' W 122°41'0 0.0
2017-Nov-15 22:28N 45°36' W 122°41'0 0.0
2017-Nov-15 22:01N 45°36' W 122°41'0 0.0
2017-Nov-15 21:12N 45°36' W 122°41'0 0.0
2017-Nov-15 21:00N 45°36' W 122°41'0 0.0
2017-Nov-15 20:27N 45°36' W 122°41'0 0.0
2017-Nov-15 20:00N 45°36' W 122°41'0 0.0
2017-Nov-15 18:45N 45°36' W 122°41'0 0.0
2017-Nov-15 18:22N 45°36' W 122°41'0 0.0
2017-Nov-15 17:48N 45°36' W 122°41'0 0.0
2017-Nov-15 17:21N 45°36' W 122°41'0 0.0
2017-Nov-15 16:54N 45°36' W 122°41'0 0.0
2017-Nov-15 16:25N 45°36' W 122°41'0 0.0
2017-Nov-15 15:57N 45°36' W 122°41'0 0.0
2017-Nov-15 15:30N 45°36' W 122°41'0 0.0
2017-Nov-15 14:57N 45°36' W 122°41'0 0.0
2017-Nov-15 14:24N 45°36' W 122°41'0 0.0
2017-Nov-15 13:57N 45°36' W 122°41'0 0.0
2017-Nov-15 13:30N 45°36' W 122°41'0 0.0
2017-Nov-15 12:57N 45°36' W 122°41'0 0.0
2017-Nov-15 12:24N 45°36' W 122°41'0 0.0
2017-Nov-15 11:54N 45°36' W 122°41'0 0.0
2017-Nov-15 11:30N 45°36' W 122°41'0 0.0
2017-Nov-15 10:54N 45°36' W 122°41'1 2.8
2017-Nov-15 10:30N 45°37' W 122°42'2 4.2
2017-Nov-15 09:55N 45°39' W 122°45'3 7.3
2017-Nov-15 09:30N 45°37' W 122°42'1 1.2
2017-Nov-15 08:58N 45°36' W 122°41'0 0.0
2017-Nov-15 08:25N 45°36' W 122°41'0 0.0
2017-Nov-15 07:55N 45°36' W 122°41'0 0.0
2017-Nov-15 07:28N 45°36' W 122°41'0 0.0
2017-Nov-15 06:46N 45°36' W 122°41'0 0.0
2017-Nov-15 06:28N 45°36' W 122°41'0 0.0
2017-Nov-15 05:58N 45°36' W 122°41'0 0.0
2017-Nov-15 05:25N 45°36' W 122°41'0 0.0
2017-Nov-15 04:46N 45°36' W 122°41'0 0.0
2017-Nov-15 04:28N 45°36' W 122°41'0 0.0
2017-Nov-15 03:55N 45°36' W 122°41'0 0.0
2017-Nov-15 03:28N 45°36' W 122°41'0 0.0
2017-Nov-15 02:58N 45°36' W 122°41'0 0.0
2017-Nov-15 02:13N 45°36' W 122°41'0 0.0
2017-Nov-15 01:19N 45°36' W 122°41'0 0.0
2017-Nov-15 00:58N 45°36' W 122°41'0 0.0
2017-Nov-15 00:19N 45°36' W 122°41'0 0.0
2017-Nov-14 23:58N 45°36' W 122°41'0 0.0
2017-Nov-14 23:25N 45°36' W 122°41'0 0.0
2017-Nov-14 22:49N 45°36' W 122°41'0 0.0
2017-Nov-14 22:25N 45°36' W 122°41'0 0.0
2017-Nov-14 21:37N 45°36' W 122°41'0 0.0
2017-Nov-14 21:22N 45°36' W 122°41'0 0.0
2017-Nov-14 20:55N 45°36' W 122°41'0 0.0
2017-Nov-14 20:13N 45°36' W 122°41'0 0.0
2017-Nov-14 19:58N 45°36' W 122°41'0 0.0
2017-Nov-14 19:28N 45°36' W 122°41'0 0.0
2017-Nov-14 18:58N 45°36' W 122°41'2 3.0
2017-Nov-14 18:28N 45°37' W 122°43'1 1.9
2017-Nov-14 18:00N 45°37' W 122°42'1 1.2
2017-Nov-14 17:28N 45°36' W 122°41'0 0.0
2017-Nov-14 16:55N 45°36' W 122°41'0 0.0
2017-Nov-14 16:25N 45°36' W 122°41'0 0.0
2017-Nov-14 15:58N 45°36' W 122°41'0 0.0
2017-Nov-14 15:28N 45°36' W 122°41'0 0.0
2017-Nov-14 14:55N 45°36' W 122°41'0 0.0
2017-Nov-14 14:28N 45°36' W 122°41'0 0.0
2017-Nov-14 13:43N 45°36' W 122°41'0 0.0
2017-Nov-14 13:25N 45°36' W 122°41'0 0.0
2017-Nov-14 12:58N 45°36' W 122°41'0 0.0
2017-Nov-14 12:22N 45°36' W 122°41'0 0.0
2017-Nov-14 11:55N 45°36' W 122°41'0 0.0
2017-Nov-14 11:28N 45°36' W 122°41'0 0.0
2017-Nov-14 10:58N 45°36' W 122°41'0 0.0
2017-Nov-14 10:28N 45°36' W 122°41'0 0.0
2017-Nov-14 09:58N 45°36' W 122°41'0 0.0
2017-Nov-14 09:28N 45°36' W 122°41'0 0.0
2017-Nov-14 08:22N 45°36' W 122°41'0 0.0
2017-Nov-14 07:58N 45°36' W 122°41'0 0.0
2017-Nov-14 07:28N 45°36' W 122°41'0 0.0
2017-Nov-14 06:49N 45°36' W 122°41'0 0.0
2017-Nov-14 06:25N 45°36' W 122°41'0 0.0
2017-Nov-14 05:58N 45°36' W 122°41'0 0.0
2017-Nov-14 05:28N 45°36' W 122°41'0 0.0
2017-Nov-14 04:58N 45°36' W 122°41'0 0.0
2017-Nov-14 04:28N 45°36' W 122°41'0 0.0
2017-Nov-14 03:55N 45°36' W 122°41'0 0.0
2017-Nov-14 03:25N 45°36' W 122°41'0 0.0
2017-Nov-14 02:58N 45°36' W 122°41'0 0.0
2017-Nov-14 02:25N 45°36' W 122°41'0 0.0
2017-Nov-14 01:58N 45°36' W 122°41'0 0.0
2017-Nov-14 01:28N 45°36' W 122°41'0 0.0
2017-Nov-14 00:58N 45°36' W 122°41'0 0.0
2017-Nov-14 00:28N 45°36' W 122°41'0 0.0
2017-Nov-13 23:58N 45°36' W 122°41'0 0.0
2017-Nov-13 23:25N 45°36' W 122°41'0 0.0
2017-Nov-13 22:55N 45°36' W 122°41'0 0.0
2017-Nov-13 22:28N 45°36' W 122°41'0 0.0
2017-Nov-13 21:46N 45°36' W 122°41'1 0.1
2017-Nov-13 02:00N 45°37' W 122°40'1 1.7
2017-Nov-13 01:26N 45°36' W 122°39'2 3.8
2017-Nov-13 00:58N 45°36' W 122°41'0 0.7
2017-Nov-13 00:29N 45°37' W 122°41'5 9.6
2017-Nov-12 23:59N 45°40' W 122°46'2 3.1
2017-Nov-12 23:25N 45°39' W 122°45'0 0.0
2017-Nov-12 22:54N 45°39' W 122°45'2 4.0
2017-Nov-12 22:31N 45°40' W 122°46'2 3.0
2017-Nov-12 21:59N 45°39' W 122°45'0 0.0
2017-Nov-12 21:31N 45°39' W 122°45'3 4.9
2017-Nov-12 20:56N 45°41' W 122°46'0 1.1
2017-Nov-12 20:30N 45°42' W 122°46'3 6.6
2017-Nov-12 20:00N 45°39' W 122°45'0 0.0
2017-Nov-12 19:30N 45°39' W 122°45'3 5.9
2017-Nov-12 19:00N 45°37' W 122°42'1 1.4
2017-Nov-12 18:29N 45°36' W 122°41'0 0.0
2017-Nov-12 17:53N 45°36' W 122°41'0 0.0
2017-Nov-12 17:29N 45°36' W 122°41'0 0.0
2017-Nov-12 16:56N 45°36' W 122°41'0 0.0
2017-Nov-12 16:26N 45°36' W 122°41'0 0.0
2017-Nov-12 15:59N 45°36' W 122°41'0 0.0
2017-Nov-12 15:23N 45°36' W 122°41'0 0.0
2017-Nov-12 14:59N 45°36' W 122°41'0 0.0
2017-Nov-12 14:20N 45°36' W 122°41'0 0.0
2017-Nov-12 13:56N 45°36' W 122°41'0 0.0
2017-Nov-12 13:29N 45°36' W 122°41'0 0.0
2017-Nov-12 12:59N 45°36' W 122°41'0 0.0
2017-Nov-12 12:26N 45°36' W 122°41'0 0.0
2017-Nov-12 11:59N 45°36' W 122°41'0 0.0
2017-Nov-12 11:29N 45°36' W 122°41'0 0.0
2017-Nov-12 10:38N 45°36' W 122°41'0 0.0
2017-Nov-12 10:29N 45°36' W 122°41'0 0.0
2017-Nov-12 09:53N 45°36' W 122°41'0 0.0
2017-Nov-12 09:26N 45°36' W 122°41'0 0.0
2017-Nov-12 08:53N 45°36' W 122°41'0 0.0
2017-Nov-12 08:23N 45°36' W 122°41'0 0.0
2017-Nov-12 07:53N 45°36' W 122°41'0 0.0
2017-Nov-12 07:29N 45°36' W 122°41'0 0.0
2017-Nov-12 06:59N 45°36' W 122°41'0 0.0
2017-Nov-12 06:26N 45°36' W 122°41'0 0.0
2017-Nov-12 05:56N 45°36' W 122°41'0 0.0
2017-Nov-12 05:26N 45°36' W 122°41'0 0.0
2017-Nov-12 04:59N 45°36' W 122°41'0 0.0
2017-Nov-12 04:20N 45°36' W 122°41'0 0.0
2017-Nov-12 03:59N 45°36' W 122°41'0 0.0
2017-Nov-12 03:26N 45°36' W 122°41'0 0.0
2017-Nov-12 02:59N 45°36' W 122°41'0 0.0
2017-Nov-12 02:26N 45°36' W 122°41'0 0.0
2017-Nov-12 01:56N 45°36' W 122°41'0 0.0
2017-Nov-12 01:29N 45°36' W 122°41'0 0.0
2017-Nov-12 00:53N 45°36' W 122°41'0 0.0
2017-Nov-12 00:29N 45°36' W 122°41'0 0.0
2017-Nov-11 23:47N 45°36' W 122°41'0 0.0
2017-Nov-11 23:29N 45°36' W 122°41'0 0.0
2017-Nov-11 22:53N 45°36' W 122°41'0 0.0
2017-Nov-11 22:26N 45°36' W 122°41'0 0.0
2017-Nov-11 21:56N 45°36' W 122°41'0 0.0
2017-Nov-11 21:29N 45°36' W 122°41'0 0.0
2017-Nov-11 20:56N 45°36' W 122°41'0 0.0
2017-Nov-11 20:29N 45°36' W 122°41'0 0.0
2017-Nov-11 19:56N 45°36' W 122°41'0 0.0
2017-Nov-11 19:26N 45°36' W 122°41'0 0.0
2017-Nov-11 18:56N 45°36' W 122°41'0 0.0
2017-Nov-11 18:26N 45°36' W 122°41'0 0.0
2017-Nov-11 17:59N 45°36' W 122°41'2 3.7
2017-Nov-11 17:29N 45°37' W 122°43'611.7
2017-Nov-11 17:00N 45°43' W 122°46'0 0.6
2017-Nov-11 16:30N 45°43' W 122°46'3 7.1
2017-Nov-11 16:00N 45°40' W 122°46'2 4.0
2017-Nov-11 15:29N 45°38' W 122°44'3 3.3
2017-Nov-11 14:42N 45°36' W 122°41'0 0.0
2017-Nov-11 14:21N 45°36' W 122°41'0 0.0
2017-Nov-11 14:00N 45°36' W 122°41'0 0.0
2017-Nov-11 13:30N 45°36' W 122°41'0 0.0
2017-Nov-11 12:54N 45°36' W 122°41'0 0.0
2017-Nov-11 12:27N 45°36' W 122°41'0 0.0
2017-Nov-11 11:57N 45°36' W 122°41'0 0.0
2017-Nov-11 11:27N 45°36' W 122°41'0 0.0
2017-Nov-11 11:00N 45°36' W 122°41'0 0.0
2017-Nov-11 10:30N 45°36' W 122°41'0 0.0
2017-Nov-11 09:57N 45°36' W 122°41'0 0.0
2017-Nov-11 09:27N 45°36' W 122°41'0 0.0
2017-Nov-11 08:45N 45°36' W 122°41'0 0.0
2017-Nov-11 08:21N 45°36' W 122°41'0 0.0
2017-Nov-11 07:48N 45°36' W 122°41'0 0.0
2017-Nov-11 07:27N 45°36' W 122°41'0 0.0
2017-Nov-11 06:54N 45°36' W 122°41'0 0.0
2017-Nov-11 06:30N 45°36' W 122°41'0 0.0
2017-Nov-11 05:54N 45°36' W 122°41'0 0.0
2017-Nov-11 05:27N 45°36' W 122°41'0 0.0
2017-Nov-11 05:00N 45°36' W 122°41'0 0.0
2017-Nov-11 04:30N 45°36' W 122°41'0 0.0
2017-Nov-11 03:57N 45°36' W 122°41'0 0.0
2017-Nov-11 03:15N 45°36' W 122°41'0 0.0
2017-Nov-11 02:54N 45°36' W 122°41'0 0.0
2017-Nov-11 02:30N 45°36' W 122°41'3 6.2
2017-Nov-11 02:00N 45°38' W 122°45'4 8.9
2017-Nov-11 01:30N 45°43' W 122°46'4 4.8
2017-Nov-11 00:40N 45°39' W 122°45'0 2.2
2017-Nov-11 00:30N 45°38' W 122°45'3 5.9
2017-Nov-10 23:58N 45°36' W 122°41'0 0.0
2017-Nov-10 23:28N 45°36' W 122°41'0 0.0
2017-Nov-10 22:49N 45°36' W 122°41'0 0.0
2017-Nov-10 22:30N 45°36' W 122°41'2 4.8
2017-Nov-10 22:00N 45°38' W 122°44'3 6.0
2017-Nov-10 21:30N 45°40' W 122°46'2 3.8
2017-Nov-10 21:00N 45°39' W 122°45'0 0.0
2017-Nov-10 20:30N 45°39' W 122°45'0 0.0
2017-Nov-10 19:54N 45°39' W 122°45'0 0.0
2017-Nov-10 19:27N 45°39' W 122°45'0 0.0
2017-Nov-10 19:00N 45°39' W 122°45'4 8.2
2017-Nov-10 18:27N 45°43' W 122°46'4 7.2
2017-Nov-10 17:50N 45°39' W 122°45'2 6.2
2017-Nov-10 17:29N 45°41' W 122°46'2 3.5
2017-Nov-10 16:52N 45°39' W 122°45'1 1.7
2017-Nov-10 16:30N 45°39' W 122°45'1 1.5
2017-Nov-10 16:00N 45°40' W 122°46'3 5.2
2017-Nov-10 15:30N 45°38' W 122°44'2 4.5
2017-Nov-10 14:59N 45°36' W 122°41'0 0.0
2017-Nov-10 14:23N 45°36' W 122°41'0 0.0
2017-Nov-10 13:53N 45°36' W 122°41'0 0.0
2017-Nov-10 13:26N 45°36' W 122°41'0 0.0
2017-Nov-10 12:35N 45°36' W 122°41'0 0.0
2017-Nov-10 12:05N 45°36' W 122°41'0 0.0
2017-Nov-10 11:59N 45°36' W 122°41'0 0.0
2017-Nov-10 11:26N 45°36' W 122°41'0 0.0
2017-Nov-10 10:59N 45°36' W 122°41'1 2.4
2017-Nov-10 10:30N 45°37' W 122°42'6 7.9
2017-Nov-10 09:41N 45°43' W 122°46'0 0.2
2017-Nov-10 09:30N 45°43' W 122°46'3 5.4
2017-Nov-10 09:00N 45°40' W 122°46'5 9.2
2017-Nov-10 08:29N 45°37' W 122°42'1 1.1
2017-Nov-10 07:58N 45°36' W 122°41'0 0.0
2017-Nov-10 07:25N 45°36' W 122°41'0 0.0
2017-Nov-10 06:58N 45°36' W 122°41'0 0.0
2017-Nov-10 06:28N 45°36' W 122°41'0 0.0
2017-Nov-10 05:55N 45°36' W 122°41'0 0.0
2017-Nov-10 05:14N 45°36' W 122°41'0 0.0
2017-Nov-10 04:49N 45°36' W 122°41'0 0.0
2017-Nov-10 04:28N 45°36' W 122°41'0 0.0
2017-Nov-10 03:56N 45°36' W 122°41'0 0.0
2017-Nov-10 03:13N 45°36' W 122°41'0 0.0
2017-Nov-10 02:59N 45°36' W 122°41'0 0.0
2017-Nov-10 02:10N 45°36' W 122°41'0 0.0
2017-Nov-10 01:40N 45°36' W 122°41'0 0.0
2017-Nov-10 01:28N 45°36' W 122°41'0 0.0
2017-Nov-10 00:58N 45°36' W 122°41'  
Track history (hours):
 
Tides and Currents Weather Stations Pressure Air Temp Water Temp Dewpoint Dewpoint Depression Visibility Wind Speed Wind Dir Waves Ship Positions

Triumph IV

Last reported at 2017-Nov-20 00:29 UTC. Time now 2017-Nov-20 14:02 UTC.
Position N 45°38' W 122°45'.

Length 13 m.

MMSI: 367177660.

Date/timePositionNaut miles runAvg speedWind from/ knotsBaromVisibWave heightAir tempDewpointWater temp
2017-Nov-20 00:29N 45°38' W 122°45'0 0.0
2017-Nov-19 23:59N 45°38' W 122°45'0 0.3
2017-Nov-19 23:30N 45°39' W 122°45'2 5.1
2017-Nov-19 23:00N 45°41' W 122°46'2 4.6
2017-Nov-19 22:29N 45°39' W 122°45'3 5.4
2017-Nov-19 22:00N 45°37' W 122°42'1 2.3
2017-Nov-19 21:30N 45°36' W 122°41'0 0.2
2017-Nov-19 20:50N 45°36' W 122°41'0 0.0
2017-Nov-19 20:23N 45°36' W 122°41'0 0.0
2017-Nov-19 19:59N 45°36' W 122°41'0 0.0
2017-Nov-19 19:17N 45°36' W 122°41'0 0.0
2017-Nov-19 18:59N 45°36' W 122°41'0 0.0
2017-Nov-19 17:32N 45°36' W 122°41'0 0.0
2017-Nov-19 17:29N 45°36' W 122°41'0 0.0
2017-Nov-19 16:56N 45°36' W 122°41'0 0.0
2017-Nov-19 15:59N 45°36' W 122°41'0 0.6
2017-Nov-19 15:28N 45°37' W 122°41'3 6.0
2017-Nov-19 15:01N 45°39' W 122°44'0 0.8
2017-Nov-19 14:29N 45°39' W 122°45'3 5.1
2017-Nov-19 14:00N 45°37' W 122°42'1 1.8
2017-Nov-19 13:27N 45°36' W 122°41'0 0.0
2017-Nov-19 12:48N 45°36' W 122°41'0 0.0
2017-Nov-19 12:30N 45°36' W 122°41'0 0.0
2017-Nov-19 11:51N 45°36' W 122°41'0 0.0
2017-Nov-19 11:30N 45°36' W 122°41'0 0.0
2017-Nov-19 10:57N 45°36' W 122°41'0 0.0
2017-Nov-19 10:27N 45°36' W 122°41'0 0.0
2017-Nov-19 10:00N 45°36' W 122°41'0 0.0
2017-Nov-19 09:18N 45°36' W 122°41'0 0.0
2017-Nov-19 08:57N 45°36' W 122°41'0 0.0
2017-Nov-19 08:27N 45°36' W 122°41'0 0.0
2017-Nov-19 08:00N 45°36' W 122°41'0 0.0
2017-Nov-19 07:18N 45°36' W 122°41'0 0.0
2017-Nov-19 07:00N 45°36' W 122°41'0 0.0
2017-Nov-19 06:30N 45°36' W 122°41'0 0.0
2017-Nov-19 05:57N 45°36' W 122°41'0 0.0
2017-Nov-19 05:27N 45°36' W 122°41'0 0.0
2017-Nov-19 05:00N 45°36' W 122°41'0 0.0
2017-Nov-19 04:27N 45°36' W 122°41'0 0.0
2017-Nov-19 04:00N 45°36' W 122°41'0 0.0
2017-Nov-19 03:27N 45°36' W 122°41'0 0.0
2017-Nov-19 03:00N 45°36' W 122°41'0 0.0
2017-Nov-19 02:30N 45°36' W 122°41'0 0.0
2017-Nov-19 01:54N 45°36' W 122°41'1 1.2
2017-Nov-19 01:28N 45°37' W 122°42'2 4.5
2017-Nov-19 00:58N 45°38' W 122°44'2 3.3
2017-Nov-19 00:27N 45°37' W 122°42'1 2.4
2017-Nov-18 23:59N 45°36' W 122°41'0 0.0
2017-Nov-18 23:26N 45°36' W 122°41'0 0.0
2017-Nov-18 22:59N 45°36' W 122°41'0 0.0
2017-Nov-18 22:29N 45°36' W 122°41'0 0.0
2017-Nov-18 21:56N 45°36' W 122°41'0 0.0
2017-Nov-18 21:29N 45°36' W 122°41'0 0.0
2017-Nov-18 20:59N 45°36' W 122°41'0 0.0
2017-Nov-18 20:29N 45°36' W 122°41'0 0.0
2017-Nov-18 19:59N 45°36' W 122°41'0 0.0
2017-Nov-18 19:29N 45°36' W 122°41'0 0.0
2017-Nov-18 18:56N 45°36' W 122°41'0 0.0
2017-Nov-18 18:26N 45°36' W 122°41'0 0.0
2017-Nov-18 17:50N 45°36' W 122°41'0 0.0
2017-Nov-18 17:29N 45°36' W 122°41'0 0.0
2017-Nov-18 16:56N 45°36' W 122°41'3 5.5
2017-Nov-18 16:27N 45°38' W 122°44'1 2.1
2017-Nov-18 16:00N 45°39' W 122°45'2 4.1
2017-Nov-18 15:30N 45°37' W 122°43'1 2.7
2017-Nov-18 14:58N 45°36' W 122°41'0 0.0
2017-Nov-18 14:28N 45°36' W 122°41'0 0.0
2017-Nov-18 13:55N 45°36' W 122°41'0 0.0
2017-Nov-18 13:25N 45°36' W 122°41'0 0.0
2017-Nov-18 12:43N 45°36' W 122°41'0 0.0
2017-Nov-18 12:28N 45°36' W 122°41'0 0.0
2017-Nov-18 11:58N 45°36' W 122°41'0 0.0
2017-Nov-18 11:28N 45°36' W 122°41'0 0.0
2017-Nov-18 10:49N 45°36' W 122°41'0 0.0
2017-Nov-18 10:25N 45°36' W 122°41'0 0.0
2017-Nov-18 09:37N 45°36' W 122°41'0 0.0
2017-Nov-18 09:13N 45°36' W 122°41'0 0.0
2017-Nov-18 08:58N 45°36' W 122°41'0 0.0
2017-Nov-18 08:25N 45°36' W 122°41'0 0.0
2017-Nov-18 07:55N 45°36' W 122°41'0 0.0
2017-Nov-18 07:28N 45°36' W 122°41'0 0.0
2017-Nov-18 06:58N 45°36' W 122°41'0 0.0
2017-Nov-18 06:25N 45°36' W 122°41'0 0.0
2017-Nov-18 05:55N 45°36' W 122°41'0 0.0
2017-Nov-18 05:25N 45°36' W 122°41'0 0.0
2017-Nov-18 04:58N 45°36' W 122°41'0 0.0
2017-Nov-18 04:28N 45°36' W 122°41'0 0.0
2017-Nov-18 03:55N 45°36' W 122°41'0 0.0
2017-Nov-18 03:22N 45°36' W 122°41'0 0.0
2017-Nov-18 02:58N 45°36' W 122°41'0 0.0
2017-Nov-18 02:28N 45°36' W 122°41'0 0.0
2017-Nov-18 01:55N 45°36' W 122°41'2 2.5
2017-Nov-18 01:08N 45°38' W 122°43'0 0.6
2017-Nov-18 00:46N 45°38' W 122°44'3 5.0
2017-Nov-18 00:12N 45°40' W 122°46'0 0.0
2017-Nov-17 23:54N 45°40' W 122°46'0 0.0
2017-Nov-17 23:30N 45°40' W 122°46'1 1.1
2017-Nov-17 22:59N 45°40' W 122°46'3 6.8
2017-Nov-17 22:30N 45°37' W 122°42'1 2.2
2017-Nov-17 21:59N 45°36' W 122°41'0 0.0
2017-Nov-17 21:26N 45°36' W 122°41'0 0.0
2017-Nov-17 20:56N 45°36' W 122°41'0 0.0
2017-Nov-17 20:26N 45°36' W 122°41'0 0.0
2017-Nov-17 19:41N 45°36' W 122°41'0 0.0
2017-Nov-17 19:26N 45°36' W 122°41'0 0.0
2017-Nov-17 18:56N 45°36' W 122°41'0 0.0
2017-Nov-17 18:29N 45°36' W 122°41'0 0.0
2017-Nov-17 17:56N 45°36' W 122°41'0 0.0
2017-Nov-17 17:26N 45°36' W 122°41'1 1.9
2017-Nov-17 16:59N 45°37' W 122°42'510.4
2017-Nov-17 16:30N 45°41' W 122°46'3 5.1
2017-Nov-17 16:00N 45°39' W 122°45'3 5.0
2017-Nov-17 15:30N 45°37' W 122°42'1 1.3
2017-Nov-17 14:41N 45°36' W 122°41'0 0.0
2017-Nov-17 14:14N 45°36' W 122°41'0 0.0
2017-Nov-17 13:53N 45°36' W 122°41'0 0.0
2017-Nov-17 13:26N 45°36' W 122°41'0 0.0
2017-Nov-17 12:59N 45°36' W 122°41'0 0.0
2017-Nov-17 12:20N 45°36' W 122°41'0 0.0
2017-Nov-17 11:59N 45°36' W 122°41'0 0.0
2017-Nov-17 11:20N 45°36' W 122°41'0 0.0
2017-Nov-17 10:56N 45°36' W 122°41'0 0.0
2017-Nov-17 10:05N 45°36' W 122°41'0 0.0
2017-Nov-17 09:59N 45°36' W 122°41'0 0.0
2017-Nov-17 09:29N 45°36' W 122°41'0 0.0
2017-Nov-17 08:50N 45°36' W 122°41'0 0.0
2017-Nov-17 08:26N 45°36' W 122°41'0 0.0
2017-Nov-17 07:59N 45°36' W 122°41'0 0.0
2017-Nov-17 07:26N 45°36' W 122°41'0 0.0
2017-Nov-17 06:59N 45°36' W 122°41'0 0.0
2017-Nov-17 06:23N 45°36' W 122°41'0 0.0
2017-Nov-17 05:56N 45°36' W 122°41'0 0.0
2017-Nov-17 05:26N 45°36' W 122°41'0 0.0
2017-Nov-17 04:59N 45°36' W 122°41'0 0.0
2017-Nov-17 04:20N 45°36' W 122°41'0 0.0
2017-Nov-17 03:50N 45°36' W 122°41'0 0.0
2017-Nov-17 03:26N 45°36' W 122°41'1 1.3
2017-Nov-17 02:59N 45°37' W 122°42'2 3.8
2017-Nov-17 02:30N 45°38' W 122°43'4 6.9
2017-Nov-17 01:56N 45°42' W 122°46'3 7.1
2017-Nov-17 01:30N 45°39' W 122°45'3 6.1
2017-Nov-17 00:56N 45°36' W 122°41'0 0.0
2017-Nov-17 00:26N 45°36' W 122°41'0 0.0
2017-Nov-16 23:53N 45°36' W 122°41'0 0.0
2017-Nov-16 23:26N 45°36' W 122°41'0 0.0
2017-Nov-16 22:26N 45°36' W 122°41'0 0.0
2017-Nov-16 21:59N 45°36' W 122°41'0 0.0
2017-Nov-16 21:29N 45°36' W 122°41'0 0.0
2017-Nov-16 20:00N 45°36' W 122°41'0 0.0
2017-Nov-16 19:24N 45°36' W 122°41'0 0.0
2017-Nov-16 19:00N 45°36' W 122°41'0 0.0
2017-Nov-16 18:30N 45°36' W 122°41'0 0.0
2017-Nov-16 18:00N 45°36' W 122°41'0 0.0
2017-Nov-16 17:30N 45°36' W 122°41'0 0.0
2017-Nov-16 17:00N 45°36' W 122°41'0 0.0
2017-Nov-16 16:24N 45°36' W 122°41'0 0.0
2017-Nov-16 16:00N 45°36' W 122°41'0 0.0
2017-Nov-16 15:18N 45°36' W 122°41'0 0.0
2017-Nov-16 15:00N 45°36' W 122°41'0 0.0
2017-Nov-16 14:30N 45°36' W 122°41'0 0.0
2017-Nov-16 13:54N 45°36' W 122°41'0 0.0
2017-Nov-16 13:24N 45°36' W 122°41'0 0.0
2017-Nov-16 12:57N 45°36' W 122°41'0 0.0
2017-Nov-16 12:30N 45°36' W 122°41'0 0.0
2017-Nov-16 11:57N 45°36' W 122°41'0 0.0
2017-Nov-16 11:27N 45°36' W 122°41'0 0.0
2017-Nov-16 10:51N 45°36' W 122°41'0 0.0
2017-Nov-16 10:24N 45°36' W 122°41'0 0.0
2017-Nov-16 10:00N 45°36' W 122°41'0 0.0
2017-Nov-16 08:54N 45°36' W 122°41'0 0.0
2017-Nov-16 08:30N 45°36' W 122°41'0 0.0
2017-Nov-16 07:57N 45°36' W 122°41'0 0.0
2017-Nov-16 07:30N 45°36' W 122°41'0 0.0
2017-Nov-16 06:54N 45°36' W 122°41'0 0.0
2017-Nov-16 06:27N 45°36' W 122°41'0 0.0
2017-Nov-16 06:00N 45°36' W 122°41'0 0.0
2017-Nov-16 05:27N 45°36' W 122°41'0 0.0
2017-Nov-16 04:54N 45°36' W 122°41'0 0.0
2017-Nov-16 04:30N 45°36' W 122°41'0 0.0
2017-Nov-16 04:00N 45°36' W 122°41'0 0.0
2017-Nov-16 03:30N 45°36' W 122°41'0 0.0
2017-Nov-16 03:00N 45°36' W 122°41'0 0.0
2017-Nov-16 02:30N 45°36' W 122°41'0 0.0
2017-Nov-16 02:00N 45°36' W 122°41'0 0.0
2017-Nov-16 01:21N 45°36' W 122°41'0 0.0
2017-Nov-16 00:45N 45°36' W 122°41'0 0.0
2017-Nov-16 00:24N 45°36' W 122°41'0 0.0
2017-Nov-16 00:00N 45°36' W 122°41'0 0.0
2017-Nov-15 23:27N 45°36' W 122°41'0 0.0
2017-Nov-15 22:57N 45°36' W 122°41'0 0.0
2017-Nov-15 22:28N 45°36' W 122°41'0 0.0
2017-Nov-15 22:01N 45°36' W 122°41'0 0.0
2017-Nov-15 21:12N 45°36' W 122°41'0 0.0
2017-Nov-15 21:00N 45°36' W 122°41'0 0.0
2017-Nov-15 20:27N 45°36' W 122°41'0 0.0
2017-Nov-15 20:00N 45°36' W 122°41'0 0.0
2017-Nov-15 18:45N 45°36' W 122°41'0 0.0
2017-Nov-15 18:22N 45°36' W 122°41'0 0.0
2017-Nov-15 17:48N 45°36' W 122°41'0 0.0
2017-Nov-15 17:21N 45°36' W 122°41'0 0.0
2017-Nov-15 16:54N 45°36' W 122°41'0 0.0
2017-Nov-15 16:25N 45°36' W 122°41'0 0.0
2017-Nov-15 15:57N 45°36' W 122°41'0 0.0
2017-Nov-15 15:30N 45°36' W 122°41'0 0.0
2017-Nov-15 14:57N 45°36' W 122°41'0 0.0
2017-Nov-15 14:24N 45°36' W 122°41'0 0.0
2017-Nov-15 13:57N 45°36' W 122°41'0 0.0
2017-Nov-15 13:30N 45°36' W 122°41'0 0.0
2017-Nov-15 12:57N 45°36' W 122°41'0 0.0
2017-Nov-15 12:24N 45°36' W 122°41'0 0.0
2017-Nov-15 11:54N 45°36' W 122°41'0 0.0
2017-Nov-15 11:30N 45°36' W 122°41'0 0.0
2017-Nov-15 10:54N 45°36' W 122°41'1 2.8
2017-Nov-15 10:30N 45°37' W 122°42'2 4.2
2017-Nov-15 09:55N 45°39' W 122°45'3 7.3
2017-Nov-15 09:30N 45°37' W 122°42'1 1.2
2017-Nov-15 08:58N 45°36' W 122°41'0 0.0
2017-Nov-15 08:25N 45°36' W 122°41'0 0.0
2017-Nov-15 07:55N 45°36' W 122°41'0 0.0
2017-Nov-15 07:28N 45°36' W 122°41'0 0.0
2017-Nov-15 06:46N 45°36' W 122°41'0 0.0
2017-Nov-15 06:28N 45°36' W 122°41'0 0.0
2017-Nov-15 05:58N 45°36' W 122°41'0 0.0
2017-Nov-15 05:25N 45°36' W 122°41'0 0.0
2017-Nov-15 04:46N 45°36' W 122°41'0 0.0
2017-Nov-15 04:28N 45°36' W 122°41'0 0.0
2017-Nov-15 03:55N 45°36' W 122°41'0 0.0
2017-Nov-15 03:28N 45°36' W 122°41'0 0.0
2017-Nov-15 02:58N 45°36' W 122°41'0 0.0
2017-Nov-15 02:13N 45°36' W 122°41'0 0.0
2017-Nov-15 01:19N 45°36' W 122°41'0 0.0
2017-Nov-15 00:58N 45°36' W 122°41'0 0.0
2017-Nov-15 00:19N 45°36' W 122°41'0 0.0
2017-Nov-14 23:58N 45°36' W 122°41'0 0.0
2017-Nov-14 23:25N 45°36' W 122°41'0 0.0
2017-Nov-14 22:49N 45°36' W 122°41'0 0.0
2017-Nov-14 22:25N 45°36' W 122°41'0 0.0
2017-Nov-14 21:37N 45°36' W 122°41'0 0.0
2017-Nov-14 21:22N 45°36' W 122°41'0 0.0
2017-Nov-14 20:55N 45°36' W 122°41'0 0.0
2017-Nov-14 20:13N 45°36' W 122°41'0 0.0
2017-Nov-14 19:58N 45°36' W 122°41'0 0.0
2017-Nov-14 19:28N 45°36' W 122°41'0 0.0
2017-Nov-14 18:58N 45°36' W 122°41'2 3.0
2017-Nov-14 18:28N 45°37' W 122°43'1 1.9
2017-Nov-14 18:00N 45°37' W 122°42'1 1.2
2017-Nov-14 17:28N 45°36' W 122°41'0 0.0
2017-Nov-14 16:55N 45°36' W 122°41'0 0.0
2017-Nov-14 16:25N 45°36' W 122°41'0 0.0
2017-Nov-14 15:58N 45°36' W 122°41'0 0.0
2017-Nov-14 15:28N 45°36' W 122°41'0 0.0
2017-Nov-14 14:55N 45°36' W 122°41'0 0.0
2017-Nov-14 14:28N 45°36' W 122°41'0 0.0
2017-Nov-14 13:43N 45°36' W 122°41'0 0.0
2017-Nov-14 13:25N 45°36' W 122°41'0 0.0
2017-Nov-14 12:58N 45°36' W 122°41'0 0.0
2017-Nov-14 12:22N 45°36' W 122°41'0 0.0
2017-Nov-14 11:55N 45°36' W 122°41'0 0.0
2017-Nov-14 11:28N 45°36' W 122°41'0 0.0
2017-Nov-14 10:58N 45°36' W 122°41'0 0.0
2017-Nov-14 10:28N 45°36' W 122°41'0 0.0
2017-Nov-14 09:58N 45°36' W 122°41'0 0.0
2017-Nov-14 09:28N 45°36' W 122°41'0 0.0
2017-Nov-14 08:22N 45°36' W 122°41'0 0.0
2017-Nov-14 07:58N 45°36' W 122°41'0 0.0
2017-Nov-14 07:28N 45°36' W 122°41'0 0.0
2017-Nov-14 06:49N 45°36' W 122°41'0 0.0
2017-Nov-14 06:25N 45°36' W 122°41'0 0.0
2017-Nov-14 05:58N 45°36' W 122°41'0 0.0
2017-Nov-14 05:28N 45°36' W 122°41'0 0.0
2017-Nov-14 04:58N 45°36' W 122°41'0 0.0
2017-Nov-14 04:28N 45°36' W 122°41'0 0.0
2017-Nov-14 03:55N 45°36' W 122°41'0 0.0
2017-Nov-14 03:25N 45°36' W 122°41'0 0.0
2017-Nov-14 02:58N 45°36' W 122°41'0 0.0
2017-Nov-14 02:25N 45°36' W 122°41'0 0.0
2017-Nov-14 01:58N 45°36' W 122°41'0 0.0
2017-Nov-14 01:28N 45°36' W 122°41'0 0.0
2017-Nov-14 00:58N 45°36' W 122°41'0 0.0
2017-Nov-14 00:28N 45°36' W 122°41'0 0.0
2017-Nov-13 23:58N 45°36' W 122°41'0 0.0
2017-Nov-13 23:25N 45°36' W 122°41'0 0.0
2017-Nov-13 22:55N 45°36' W 122°41'0 0.0
2017-Nov-13 22:28N 45°36' W 122°41'0 0.0
2017-Nov-13 21:46N 45°36' W 122°41'1 0.1
2017-Nov-13 02:00N 45°37' W 122°40'1 1.7
2017-Nov-13 01:26N 45°36' W 122°39'2 3.8
2017-Nov-13 00:58N 45°36' W 122°41'0 0.7
2017-Nov-13 00:29N 45°37' W 122°41'5 9.6
2017-Nov-12 23:59N 45°40' W 122°46'2 3.1
2017-Nov-12 23:25N 45°39' W 122°45'0 0.0
2017-Nov-12 22:54N 45°39' W 122°45'2 4.0
2017-Nov-12 22:31N 45°40' W 122°46'2 3.0
2017-Nov-12 21:59N 45°39' W 122°45'0 0.0
2017-Nov-12 21:31N 45°39' W 122°45'3 4.9
2017-Nov-12 20:56N 45°41' W 122°46'0 1.1
2017-Nov-12 20:30N 45°42' W 122°46'3 6.6
2017-Nov-12 20:00N 45°39' W 122°45'0 0.0
2017-Nov-12 19:30N 45°39' W 122°45'3 5.9
2017-Nov-12 19:00N 45°37' W 122°42'1 1.4
2017-Nov-12 18:29N 45°36' W 122°41'0 0.0
2017-Nov-12 17:53N 45°36' W 122°41'0 0.0
2017-Nov-12 17:29N 45°36' W 122°41'0 0.0
2017-Nov-12 16:56N 45°36' W 122°41'0 0.0
2017-Nov-12 16:26N 45°36' W 122°41'0 0.0
2017-Nov-12 15:59N 45°36' W 122°41'0 0.0
2017-Nov-12 15:23N 45°36' W 122°41'0 0.0
2017-Nov-12 14:59N 45°36' W 122°41'0 0.0
2017-Nov-12 14:20N 45°36' W 122°41'0 0.0
2017-Nov-12 13:56N 45°36' W 122°41'0 0.0
2017-Nov-12 13:29N 45°36' W 122°41'0 0.0
2017-Nov-12 12:59N 45°36' W 122°41'0 0.0
2017-Nov-12 12:26N 45°36' W 122°41'0 0.0
2017-Nov-12 11:59N 45°36' W 122°41'0 0.0
2017-Nov-12 11:29N 45°36' W 122°41'0 0.0
2017-Nov-12 10:38N 45°36' W 122°41'0 0.0
2017-Nov-12 10:29N 45°36' W 122°41'0 0.0
2017-Nov-12 09:53N 45°36' W 122°41'0 0.0
2017-Nov-12 09:26N 45°36' W 122°41'0 0.0
2017-Nov-12 08:53N 45°36' W 122°41'0 0.0
2017-Nov-12 08:23N 45°36' W 122°41'0 0.0
2017-Nov-12 07:53N 45°36' W 122°41'0 0.0
2017-Nov-12 07:29N 45°36' W 122°41'0 0.0
2017-Nov-12 06:59N 45°36' W 122°41'0 0.0
2017-Nov-12 06:26N 45°36' W 122°41'0 0.0
2017-Nov-12 05:56N 45°36' W 122°41'0 0.0
2017-Nov-12 05:26N 45°36' W 122°41'0 0.0
2017-Nov-12 04:59N 45°36' W 122°41'0 0.0
2017-Nov-12 04:20N 45°36' W 122°41'0 0.0
2017-Nov-12 03:59N 45°36' W 122°41'0 0.0
2017-Nov-12 03:26N 45°36' W 122°41'0 0.0
2017-Nov-12 02:59N 45°36' W 122°41'0 0.0
2017-Nov-12 02:26N 45°36' W 122°41'0 0.0
2017-Nov-12 01:56N 45°36' W 122°41'0 0.0
2017-Nov-12 01:29N 45°36' W 122°41'0 0.0
2017-Nov-12 00:53N 45°36' W 122°41'0 0.0
2017-Nov-12 00:29N 45°36' W 122°41'0 0.0
2017-Nov-11 23:47N 45°36' W 122°41'0 0.0
2017-Nov-11 23:29N 45°36' W 122°41'0 0.0
2017-Nov-11 22:53N 45°36' W 122°41'0 0.0
2017-Nov-11 22:26N 45°36' W 122°41'0 0.0
2017-Nov-11 21:56N 45°36' W 122°41'0 0.0
2017-Nov-11 21:29N 45°36' W 122°41'0 0.0
2017-Nov-11 20:56N 45°36' W 122°41'0 0.0
2017-Nov-11 20:29N 45°36' W 122°41'0 0.0
2017-Nov-11 19:56N 45°36' W 122°41'0 0.0
2017-Nov-11 19:26N 45°36' W 122°41'0 0.0
2017-Nov-11 18:56N 45°36' W 122°41'0 0.0
2017-Nov-11 18:26N 45°36' W 122°41'0 0.0
2017-Nov-11 17:59N 45°36' W 122°41'2 3.7
2017-Nov-11 17:29N 45°37' W 122°43'611.7
2017-Nov-11 17:00N 45°43' W 122°46'0 0.6
2017-Nov-11 16:30N 45°43' W 122°46'3 7.1
2017-Nov-11 16:00N 45°40' W 122°46'2 4.0
2017-Nov-11 15:29N 45°38' W 122°44'3 3.3
2017-Nov-11 14:42N 45°36' W 122°41'0 0.0
2017-Nov-11 14:21N 45°36' W 122°41'0 0.0
2017-Nov-11 14:00N 45°36' W 122°41'0 0.0
2017-Nov-11 13:30N 45°36' W 122°41'0 0.0
2017-Nov-11 12:54N 45°36' W 122°41'0 0.0
2017-Nov-11 12:27N 45°36' W 122°41'0 0.0
2017-Nov-11 11:57N 45°36' W 122°41'0 0.0
2017-Nov-11 11:27N 45°36' W 122°41'0 0.0
2017-Nov-11 11:00N 45°36' W 122°41'0 0.0
2017-Nov-11 10:30N 45°36' W 122°41'0 0.0
2017-Nov-11 09:57N 45°36' W 122°41'0 0.0
2017-Nov-11 09:27N 45°36' W 122°41'0 0.0
2017-Nov-11 08:45N 45°36' W 122°41'0 0.0
2017-Nov-11 08:21N 45°36' W 122°41'0 0.0
2017-Nov-11 07:48N 45°36' W 122°41'0 0.0
2017-Nov-11 07:27N 45°36' W 122°41'0 0.0
2017-Nov-11 06:54N 45°36' W 122°41'0 0.0
2017-Nov-11 06:30N 45°36' W 122°41'0 0.0
2017-Nov-11 05:54N 45°36' W 122°41'0 0.0
2017-Nov-11 05:27N 45°36' W 122°41'0 0.0
2017-Nov-11 05:00N 45°36' W 122°41'0 0.0
2017-Nov-11 04:30N 45°36' W 122°41'0 0.0
2017-Nov-11 03:57N 45°36' W 122°41'0 0.0
2017-Nov-11 03:15N 45°36' W 122°41'0 0.0
2017-Nov-11 02:54N 45°36' W 122°41'0 0.0
2017-Nov-11 02:30N 45°36' W 122°41'3 6.2
2017-Nov-11 02:00N 45°38' W 122°45'4 8.9
2017-Nov-11 01:30N 45°43' W 122°46'4 4.8
2017-Nov-11 00:40N 45°39' W 122°45'0 2.2
2017-Nov-11 00:30N 45°38' W 122°45'3 5.9
2017-Nov-10 23:58N 45°36' W 122°41'0 0.0
2017-Nov-10 23:28N 45°36' W 122°41'0 0.0
2017-Nov-10 22:49N 45°36' W 122°41'0 0.0
2017-Nov-10 22:30N 45°36' W 122°41'2 4.8
2017-Nov-10 22:00N 45°38' W 122°44'3 6.0
2017-Nov-10 21:30N 45°40' W 122°46'2 3.8
2017-Nov-10 21:00N 45°39' W 122°45'0 0.0
2017-Nov-10 20:30N 45°39' W 122°45'0 0.0
2017-Nov-10 19:54N 45°39' W 122°45'0 0.0
2017-Nov-10 19:27N 45°39' W 122°45'0 0.0
2017-Nov-10 19:00N 45°39' W 122°45'4 8.2
2017-Nov-10 18:27N 45°43' W 122°46'4 7.2
2017-Nov-10 17:50N 45°39' W 122°45'2 6.2
2017-Nov-10 17:29N 45°41' W 122°46'2 3.5
2017-Nov-10 16:52N 45°39' W 122°45'1 1.7
2017-Nov-10 16:30N 45°39' W 122°45'1 1.5
2017-Nov-10 16:00N 45°40' W 122°46'3 5.2
2017-Nov-10 15:30N 45°38' W 122°44'2 4.5
2017-Nov-10 14:59N 45°36' W 122°41'0 0.0
2017-Nov-10 14:23N 45°36' W 122°41'0 0.0
2017-Nov-10 13:53N 45°36' W 122°41'0 0.0
2017-Nov-10 13:26N 45°36' W 122°41'0 0.0
2017-Nov-10 12:35N 45°36' W 122°41'0 0.0
2017-Nov-10 12:05N 45°36' W 122°41'0 0.0
2017-Nov-10 11:59N 45°36' W 122°41'0 0.0
2017-Nov-10 11:26N 45°36' W 122°41'0 0.0
2017-Nov-10 10:59N 45°36' W 122°41'1 2.4
2017-Nov-10 10:30N 45°37' W 122°42'6 7.9
2017-Nov-10 09:41N 45°43' W 122°46'0 0.2
2017-Nov-10 09:30N 45°43' W 122°46'3 5.4
2017-Nov-10 09:00N 45°40' W 122°46'5 9.2
2017-Nov-10 08:29N 45°37' W 122°42'1 1.1
2017-Nov-10 07:58N 45°36' W 122°41'0 0.0
2017-Nov-10 07:25N 45°36' W 122°41'0 0.0
2017-Nov-10 06:58N 45°36' W 122°41'0 0.0
2017-Nov-10 06:28N 45°36' W 122°41'0 0.0
2017-Nov-10 05:55N 45°36' W 122°41'0 0.0
2017-Nov-10 05:14N 45°36' W 122°41'0 0.0
2017-Nov-10 04:49N 45°36' W 122°41'0 0.0
2017-Nov-10 04:28N 45°36' W 122°41'0 0.0
2017-Nov-10 03:56N 45°36' W 122°41'0 0.0
2017-Nov-10 03:13N 45°36' W 122°41'0 0.0
2017-Nov-10 02:59N 45°36' W 122°41'0 0.0
2017-Nov-10 02:10N 45°36' W 122°41'0 0.0
2017-Nov-10 01:40N 45°36' W 122°41'0 0.0
2017-Nov-10 01:28N 45°36' W 122°41'0 0.0
2017-Nov-10 00:58N 45°36' W 122°41'  

Dump ship's entire track history